Time;durP1;ratioP1;P1;durP2;ratioP2;P2;SDS_P1;SDS_P2;PMS_P1;PMS_P2;Temp;Humidity;BMP_temperature;BMP_pressure;BME280_temperature;BME280_humidity;BME280_pressure;Samples;Min_cycle;Max_cycle;Signal;HPM_P1;HPM_P2
2023/03/18 00:01:06;;;;;;;;;;;12.10;99.90;;;;;;5067185;28;19924;-65
2023/03/18 00:03:33;;;;;;;;;;;12.00;99.90;;;;;;5068884;28;19925;-66
2023/03/18 00:06:03;;;;;;;;;;;12.00;99.90;;;;;;5064650;28;19928;-66
2023/03/18 00:08:32;;;;;;;;;;;12.00;99.90;;;;;;5067743;28;19924;-67
2023/03/18 00:10:59;;;;;;;;;;;11.90;99.90;;;;;;5066373;28;20303;-66
2023/03/18 00:13:26;;;;;;;;;;;11.80;99.90;;;;;;5072892;28;20015;-66
2023/03/18 00:15:53;;;;;;;;;;;11.80;99.90;;;;;;5070828;28;19924;-65
2023/03/18 00:18:21;;;;;;;;;;;11.80;99.90;;;;;;5072646;28;20294;-66
2023/03/18 00:20:48;;;;;;;;;;;11.80;99.90;;;;;;5070775;28;20413;-66
2023/03/18 00:23:15;;;;;;;;;;;11.70;99.90;;;;;;5072218;28;19928;-65
2023/03/18 00:25:42;;;;;;;;;;;11.80;99.90;;;;;;5070591;28;19967;-66
2023/03/18 00:28:09;;;;;;;;;;;11.70;99.90;;;;;;5069847;28;19931;-65
2023/03/18 00:30:37;;;;;;;;;;;11.80;99.90;;;;;;5069635;28;20365;-65
2023/03/18 00:33:04;;;;;;;;;;;11.80;99.90;;;;;;5070890;28;20009;-65
2023/03/18 00:35:33;;;;;;;;;;;11.80;99.90;;;;;;5069344;28;20015;-65
2023/03/18 00:38:02;;;;;;;;;;;11.80;99.90;;;;;;5069463;28;19936;-65
2023/03/18 00:40:41;;;;;;;;;;;11.80;99.90;;;;;;5069266;28;20339;-65
2023/03/18 00:43:08;;;;;;;;;;;11.70;99.90;;;;;;5066922;28;20299;-65
2023/03/18 00:45:37;;;;;;;;;;;11.70;99.90;;;;;;5066825;28;19924;-65
2023/03/18 00:48:03;;;;;;;;;;;11.70;99.90;;;;;;5063037;28;19929;-66
2023/03/18 00:50:30;;;;;;;;;;;11.70;99.90;;;;;;5069385;28;19931;-65
2023/03/18 00:52:59;;;;;;;;;;;11.70;99.90;;;;;;5069009;28;19932;-65
2023/03/18 00:55:26;;;;;;;;;;;11.70;99.90;;;;;;5067612;28;19928;-65
2023/03/18 00:57:53;;;;;;;;;;;11.60;99.90;;;;;;5068493;28;19931;-65
2023/03/18 01:00:20;;;;;;;;;;;11.70;99.90;;;;;;5073000;28;19932;-65
2023/03/18 01:02:48;;;;;;;;;;;11.60;99.90;;;;;;5066835;28;19930;-65
2023/03/18 01:05:15;;;;;;;;;;;11.70;99.90;;;;;;5076764;28;19924;-66
2023/03/18 01:07:42;;;;;;;;;;;11.70;99.90;;;;;;5069506;28;20018;-66
2023/03/18 01:10:13;;;;;;;;;;;11.70;99.90;;;;;;5069309;28;19924;-66
2023/03/18 01:12:40;;;;;;;;;;;11.60;99.90;;;;;;5069260;28;19928;-66
2023/03/18 01:15:08;;;;;;;;;;;11.70;99.90;;;;;;5070152;28;19940;-66
2023/03/18 01:17:35;;;;;;;;;;;11.60;99.90;;;;;;5068186;28;19924;-65
2023/03/18 01:20:02;;;;;;;;;;;11.60;99.90;;;;;;5070469;28;19924;-65
2023/03/18 01:22:29;;;;;;;;;;;11.60;99.90;;;;;;5065530;28;19925;-64
2023/03/18 01:24:57;;;;;;;;;;;11.60;99.90;;;;;;5072878;28;19931;-65
2023/03/18 01:27:25;;;;;;;;;;;11.60;99.90;;;;;;5068328;28;19978;-65
2023/03/18 01:29:52;;;;;;;;;;;11.60;99.90;;;;;;5068569;28;19956;-65
2023/03/18 01:32:19;;;;;;;;;;;11.60;99.90;;;;;;5065814;28;20019;-64
2023/03/18 01:34:45;;;;;;;;;;;11.60;99.90;;;;;;5075416;28;20498;-64
2023/03/18 01:37:12;;;;;;;;;;;11.60;99.90;;;;;;5077052;28;19931;-65
2023/03/18 01:39:39;;;;;;;;;;;11.60;99.90;;;;;;5072014;28;20606;-65
2023/03/18 01:42:06;;;;;;;;;;;11.60;99.90;;;;;;5075750;28;19968;-65
2023/03/18 01:44:34;;;;;;;;;;;11.60;99.90;;;;;;5070683;28;19931;-64
2023/03/18 01:47:01;;;;;;;;;;;11.50;99.90;;;;;;5068484;28;19928;-64
2023/03/18 01:49:31;;;;;;;;;;;11.50;99.90;;;;;;5068784;28;19933;-64
2023/03/18 01:51:59;;;;;;;;;;;11.40;99.90;;;;;;5070823;28;19931;-64
2023/03/18 01:54:26;;;;;;;;;;;11.50;99.90;;;;;;5076005;28;20302;-64
2023/03/18 01:56:54;;;;;;;;;;;11.50;99.90;;;;;;5068792;28;19924;-65
2023/03/18 01:59:22;;;;;;;;;;;11.40;99.90;;;;;;5070884;28;19994;-65
2023/03/18 02:01:53;;;;;;;;;;;11.30;99.90;;;;;;5071251;28;19936;-65
2023/03/18 02:04:22;;;;;;;;;;;11.30;99.90;;;;;;5071548;28;19936;-64
2023/03/18 02:06:49;;;;;;;;;;;11.30;99.90;;;;;;5067582;28;19931;-64
2023/03/18 02:09:16;;;;;;;;;;;11.30;99.90;;;;;;5074612;28;19924;-63
2023/03/18 02:11:44;;;;;;;;;;;11.30;99.90;;;;;;5077581;28;19924;-63
2023/03/18 02:14:13;;;;;;;;;;;11.30;99.90;;;;;;5071937;28;20008;-64
2023/03/18 02:16:43;;;;;;;;;;;11.30;99.90;;;;;;5064069;28;20073;-64
2023/03/18 02:19:14;;;;;;;;;;;11.30;99.90;;;;;;5068793;28;19931;-64
2023/03/18 02:21:45;;;;;;;;;;;11.30;99.90;;;;;;5066942;28;20415;-64
2023/03/18 02:24:17;;;;;;;;;;;11.20;99.90;;;;;;5078046;28;19931;-64
2023/03/18 02:26:48;;;;;;;;;;;11.30;99.90;;;;;;5069708;28;19924;-64
2023/03/18 02:29:18;;;;;;;;;;;11.20;99.90;;;;;;5063170;28;19924;-64
2023/03/18 02:31:45;;;;;;;;;;;11.20;99.90;;;;;;5070005;28;20017;-64
2023/03/18 02:34:12;;;;;;;;;;;11.20;99.90;;;;;;5078166;28;19939;-64
2023/03/18 02:36:38;;;;;;;;;;;11.10;99.90;;;;;;5070054;28;19986;-63
2023/03/18 02:39:05;;;;;;;;;;;11.10;99.90;;;;;;5080967;28;19924;-65
2023/03/18 02:41:33;;;;;;;;;;;11.10;99.90;;;;;;5069067;28;20461;-63
2023/03/18 02:44:00;;;;;;;;;;;11.10;99.90;;;;;;5068395;28;19935;-64
2023/03/18 02:46:31;;;;;;;;;;;11.00;99.90;;;;;;5069532;28;19958;-63
2023/03/18 02:48:59;;;;;;;;;;;11.00;99.90;;;;;;5068673;28;19924;-64
2023/03/18 02:51:26;;;;;;;;;;;10.90;99.90;;;;;;5063990;28;20358;-64
2023/03/18 02:53:54;;;;;;;;;;;10.80;99.90;;;;;;5069238;28;19931;-64
2023/03/18 02:56:22;;;;;;;;;;;10.80;99.90;;;;;;5068880;28;19931;-64
2023/03/18 02:58:49;;;;;;;;;;;10.80;99.90;;;;;;5070699;28;19925;-64
2023/03/18 03:01:16;;;;;;;;;;;10.80;99.90;;;;;;5067432;28;20299;-64
2023/03/18 03:03:44;;;;;;;;;;;10.70;99.90;;;;;;5068004;28;19924;-64
2023/03/18 03:06:11;;;;;;;;;;;10.70;99.90;;;;;;5065781;28;20307;-64
2023/03/18 03:08:38;;;;;;;;;;;10.70;99.90;;;;;;5067255;28;19931;-64
2023/03/18 03:11:04;;;;;;;;;;;10.60;99.90;;;;;;5066793;28;19934;-64
2023/03/18 03:13:31;;;;;;;;;;;10.60;99.90;;;;;;5075298;28;19924;-64
2023/03/18 03:15:58;;;;;;;;;;;10.60;99.90;;;;;;5070259;28;19924;-64
2023/03/18 03:18:25;;;;;;;;;;;10.50;99.90;;;;;;5071281;28;20016;-64
2023/03/18 03:20:53;;;;;;;;;;;10.40;99.90;;;;;;5066785;28;20406;-64
2023/03/18 03:23:20;;;;;;;;;;;10.40;99.90;;;;;;5069306;28;19956;-64
2023/03/18 03:25:46;;;;;;;;;;;10.30;99.90;;;;;;5070990;28;20026;-64
2023/03/18 03:28:15;;;;;;;;;;;10.40;99.90;;;;;;5068991;28;19924;-64
2023/03/18 03:30:42;;;;;;;;;;;10.40;99.90;;;;;;5068383;28;19992;-64
2023/03/18 03:33:09;;;;;;;;;;;;;;;;;;5065938;28;19932;-65
2023/03/18 03:35:37;;;;;;;;;;;;;;;;;;5063453;28;19924;-64
2023/03/18 03:38:04;;;;;;;;;;;;;;;;;;5070648;28;20045;-64
2023/03/18 03:40:31;;;;;;;;;;;;;;;;;;5071348;28;20338;-64
2023/03/18 03:42:58;;;;;;;;;;;;;;;;;;5060095;28;19970;-64
2023/03/18 03:45:25;;;;;;;;;;;;;;;;;;5076205;28;19932;-65
2023/03/18 03:47:52;;;;;;;;;;;;;;;;;;5072069;28;19928;-64
2023/03/18 03:50:20;;;;;;;;;;;;;;;;;;5062170;28;19928;-64
2023/03/18 03:52:47;;;;;;;;;;;;;;;;;;5070617;28;19925;-64
2023/03/18 03:55:14;;;;;;;;;;;;;;;;;;5073015;28;19931;-64
2023/03/18 03:57:41;;;;;;;;;;;;;;;;;;5072425;28;20322;-64
2023/03/18 04:00:09;;;;;;;;;;;;;;;;;;5068269;28;20350;-64
2023/03/18 04:02:36;;;;;;;;;;;;;;;;;;5071358;28;19931;-64
2023/03/18 04:05:03;;;;;;;;;;;;;;;;;;5069638;28;19982;-63
2023/03/18 04:07:30;;;;;;;;;;;;;;;;;;5076104;28;19924;-63
2023/03/18 04:09:57;;;;;;;;;;;;;;;;;;5064922;28;19928;-64
2023/03/18 04:12:24;;;;;;;;;;;;;;;;;;5074899;28;20035;-64
2023/03/18 04:14:51;;;;;;;;;;;;;;;;;;5070596;28;19932;-64
2023/03/18 04:17:17;;;;;;;;;;;;;;;;;;5061315;28;20003;-64
2023/03/18 04:19:44;;;;;;;;;;;;;;;;;;5075379;28;19925;-64
2023/03/18 04:22:11;;;;;;;;;;;;;;;;;;5070002;28;19928;-64
2023/03/18 04:24:38;;;;;;;;;;;;;;;;;;5068562;28;20307;-64
2023/03/18 04:27:05;;;;;;;;;;;;;;;;;;5065211;28;19925;-63
2023/03/18 04:29:33;;;;;;;;;;;10.60;99.90;;;;;;5071256;28;19931;-65
2023/03/18 04:32:00;;;;;;;;;;;9.50;99.90;;;;;;5080744;28;20375;-65
2023/03/18 04:34:27;;;;;;;;;;;9.40;99.90;;;;;;5072203;28;19987;-64
2023/03/18 04:36:54;;;;;;;;;;;9.50;99.90;;;;;;5069608;28;19931;-64
2023/03/18 04:39:21;;;;;;;;;;;9.40;99.90;;;;;;5070284;28;19971;-65
2023/03/18 04:41:47;;;;;;;;;;;9.40;99.90;;;;;;5071170;28;19925;-64
2023/03/18 04:44:14;;;;;;;;;;;9.40;99.90;;;;;;5070683;28;19931;-64
2023/03/18 04:46:42;;;;;;;;;;;9.40;99.90;;;;;;5070024;28;19925;-64
2023/03/18 04:49:09;;;;;;;;;;;9.40;99.90;;;;;;5071157;28;20022;-64
2023/03/18 04:51:36;;;;;;;;;;;9.30;99.90;;;;;;5069259;28;20357;-64
2023/03/18 04:54:03;;;;;;;;;;;9.30;99.90;;;;;;5070304;28;19930;-65
2023/03/18 04:56:30;;;;;;;;;;;9.30;99.90;;;;;;5070171;28;19925;-65
2023/03/18 04:58:57;;;;;;;;;;;9.30;99.90;;;;;;5067941;28;19933;-64
2023/03/18 05:01:24;;;;;;;;;;;9.30;99.90;;;;;;5070206;28;20023;-64
2023/03/18 05:03:52;;;;;;;;;;;9.20;99.90;;;;;;5069348;28;20383;-64
2023/03/18 05:06:21;;;;;;;;;;;9.20;99.90;;;;;;5069736;28;20007;-65
2023/03/18 05:08:48;;;;;;;;;;;9.20;99.90;;;;;;5068412;28;20383;-64
2023/03/18 05:11:15;;;;;;;;;;;9.20;99.90;;;;;;5077082;28;20014;-64
2023/03/18 05:13:41;;;;;;;;;;;9.20;99.90;;;;;;5078840;28;20031;-64
2023/03/18 05:16:08;;;;;;;;;;;9.10;99.90;;;;;;5067172;28;19931;-64
2023/03/18 05:18:35;;;;;;;;;;;9.10;99.90;;;;;;5066647;28;19925;-65
2023/03/18 05:21:03;;;;;;;;;;;9.10;99.90;;;;;;5068736;28;19929;-65
2023/03/18 05:23:30;;;;;;;;;;;9.00;99.90;;;;;;5069575;28;20346;-65
2023/03/18 05:25:57;;;;;;;;;;;9.10;99.90;;;;;;5074176;28;19928;-66
2023/03/18 05:28:24;;;;;;;;;;;9.10;99.90;;;;;;5074004;28;19924;-65
2023/03/18 05:30:51;;;;;;;;;;;9.00;99.90;;;;;;5069241;28;19930;-65
2023/03/18 05:33:18;;;;;;;;;;;9.00;99.90;;;;;;5078731;28;19931;-64
2023/03/18 05:35:44;;;;;;;;;;;9.00;99.90;;;;;;5068433;28;19924;-65
2023/03/18 05:38:13;;;;;;;;;;;9.00;99.90;;;;;;5073620;28;19930;-64
2023/03/18 05:40:40;;;;;;;;;;;9.00;99.90;;;;;;5068675;28;20384;-64
2023/03/18 05:43:07;;;;;;;;;;;8.90;99.90;;;;;;5070905;28;20015;-64
2023/03/18 05:45:33;;;;;;;;;;;8.90;99.90;;;;;;5071826;28;19930;-64
2023/03/18 05:48:00;;;;;;;;;;;8.90;99.90;;;;;;5070026;28;19968;-64
2023/03/18 05:50:32;;;;;;;;;;;8.90;99.90;;;;;;5068440;28;20007;-64
2023/03/18 05:52:59;;;;;;;;;;;8.80;99.90;;;;;;5066962;28;20363;-64
2023/03/18 05:55:28;;;;;;;;;;;8.80;99.90;;;;;;5069281;28;19924;-65
2023/03/18 05:57:55;;;;;;;;;;;8.90;99.90;;;;;;5074038;28;19944;-65
2023/03/18 06:00:23;;;;;;;;;;;8.90;99.90;;;;;;5073617;28;19924;-63
2023/03/18 06:02:51;;;;;;;;;;;8.90;99.90;;;;;;5070206;28;20011;-65
2023/03/18 06:05:18;;;;;;;;;;;8.90;99.90;;;;;;5068536;28;19924;-64
2023/03/18 06:07:45;;;;;;;;;;;8.90;99.90;;;;;;5069359;28;20347;-64
2023/03/18 06:10:12;;;;;;;;;;;9.00;99.90;;;;;;5070205;28;20087;-62
2023/03/18 06:12:41;;;;;;;;;;;9.10;99.90;;;;;;5083003;28;20439;-63
2023/03/18 06:15:09;;;;;;;;;;;9.10;99.90;;;;;;5073837;28;19935;-64
2023/03/18 06:17:36;;;;;;;;;;;9.20;99.90;;;;;;5059180;28;20017;-63
2023/03/18 06:20:03;;;;;;;;;;;9.20;99.90;;;;;;5070493;28;19932;-63
2023/03/18 06:22:30;;;;;;;;;;;9.20;99.90;;;;;;5079304;28;19931;-64
2023/03/18 06:24:57;;;;;;;;;;;9.20;99.90;;;;;;5069471;28;20027;-63
2023/03/18 06:27:23;;;;;;;;;;;9.20;99.90;;;;;;5067644;28;20023;-64
2023/03/18 06:29:51;;;;;;;;;;;9.20;99.90;;;;;;5066859;28;19924;-64
2023/03/18 06:32:18;;;;;;;;;;;9.30;99.90;;;;;;5067939;28;19924;-61
2023/03/18 06:34:45;;;;;;;;;;;9.30;99.90;;;;;;5063379;28;20462;-60
2023/03/18 06:37:11;;;;;;;;;;;9.40;99.90;;;;;;5066551;28;19931;-63
2023/03/18 06:39:38;;;;;;;;;;;9.50;99.90;;;;;;5072519;28;20031;-62
2023/03/18 06:42:05;;;;;;;;;;;9.50;99.90;;;;;;5068317;28;19924;-64
2023/03/18 06:44:31;;;;;;;;;;;9.60;99.90;;;;;;5068287;28;20389;-64
2023/03/18 06:47:00;;;;;;;;;;;9.70;99.90;;;;;;5063621;28;19924;-64
2023/03/18 06:49:27;;;;;;;;;;;9.80;99.90;;;;;;5066348;28;20015;-63
2023/03/18 06:51:53;;;;;;;;;;;10.00;99.90;;;;;;5067673;28;19928;-64
2023/03/18 06:54:20;;;;;;;;;;;10.10;99.90;;;;;;5068514;28;20302;-64
2023/03/18 06:56:47;;;;;;;;;;;10.30;99.90;;;;;;5064081;28;19990;-64
2023/03/18 06:59:14;;;;;;;;;;;10.60;99.90;;;;;;5069504;28;19932;-64
2023/03/18 07:01:41;;;;;;;;;;;10.80;99.90;;;;;;5070592;28;20019;-64
2023/03/18 07:04:09;;;;;;;;;;;10.90;99.90;;;;;;5065783;28;20299;-63
2023/03/18 07:06:35;;;;;;;;;;;10.90;99.90;;;;;;5078096;28;19924;-64
2023/03/18 07:09:02;;;;;;;;;;;10.90;99.90;;;;;;5068909;28;19929;-64
2023/03/18 07:11:29;;;;;;;;;;;11.00;99.90;;;;;;5072913;28;19924;-64
2023/03/18 07:13:56;;;;;;;;;;;11.00;99.90;;;;;;5070626;28;19925;-64
2023/03/18 07:16:22;;;;;;;;;;;11.00;99.90;;;;;;5063242;28;19982;-64
2023/03/18 07:18:49;;;;;;;;;;;11.10;99.90;;;;;;5065167;28;20031;-64
2023/03/18 07:21:18;;;;;;;;;;;11.30;99.90;;;;;;5064783;28;20008;-63
2023/03/18 07:23:45;;;;;;;;;;;11.40;99.90;;;;;;5077986;28;19924;-64
2023/03/18 07:26:12;;;;;;;;;;;11.50;99.90;;;;;;5068851;28;20006;-64
2023/03/18 07:28:38;;;;;;;;;;;11.60;99.90;;;;;;5072187;28;19928;-63
2023/03/18 07:31:05;;;;;;;;;;;11.70;99.90;;;;;;5069686;28;20347;-63
2023/03/18 07:33:33;;;;;;;;;;;11.80;99.90;;;;;;5061806;28;20001;-65
2023/03/18 07:36:00;;;;;;;;;;;11.90;99.90;;;;;;5071742;28;19935;-63
2023/03/18 07:38:28;;;;;;;;;;;12.00;99.90;;;;;;5068069;28;19934;-63
2023/03/18 07:40:55;;;;;;;;;;;12.20;99.90;;;;;;5064239;28;20400;-64
2023/03/18 07:43:22;;;;;;;;;;;12.30;99.90;;;;;;5071703;28;20302;-63
2023/03/18 07:45:49;;;;;;;;;;;12.40;99.90;;;;;;5060253;28;19931;-63
2023/03/18 07:48:15;;;;;;;;;;;12.40;99.90;;;;;;5069228;28;19929;-62
2023/03/18 07:50:42;;;;;;;;;;;12.40;99.90;;;;;;5071650;28;19932;-62
2023/03/18 07:53:09;;;;;;;;;;;12.40;99.90;;;;;;5083541;28;19924;-62
2023/03/18 07:55:37;;;;;;;;;;;12.40;99.90;;;;;;5073972;28;19924;-64
2023/03/18 07:58:04;;;;;;;;;;;12.60;99.90;;;;;;5070074;28;19932;-64
2023/03/18 08:00:31;;;;;;;;;;;12.90;99.90;;;;;;5063599;28;19932;-64
2023/03/18 08:02:58;;;;;;;;;;;13.00;99.90;;;;;;5072013;28;19985;-64
2023/03/18 08:05:26;;;;;;;;;;;13.40;99.90;;;;;;5074249;22;20032;-64
2023/03/18 08:07:53;;;;;;;;;;;13.90;99.90;;;;;;5090178;28;19931;-63
2023/03/18 08:10:22;;;;;;;;;;;15.10;99.90;;;;;;5084088;28;20240;-64
2023/03/18 08:12:51;;;;;;;;;;;16.50;99.90;;;;;;5092054;28;19924;-64
2023/03/18 08:15:18;;;;;;;;;;;15.80;99.90;;;;;;5091220;28;20412;-62
2023/03/18 08:17:44;;;;;;;;;;;14.80;99.90;;;;;;5097131;28;19930;-64
2023/03/18 08:20:12;;;;;;;;;;;14.70;99.90;;;;;;5087045;28;19971;-65
2023/03/18 08:22:38;;;;;;;;;;;15.20;99.90;;;;;;5096062;28;20295;-63
2023/03/18 08:25:06;;;;;;;;;;;14.90;99.90;;;;;;5088117;28;19994;-63
2023/03/18 08:27:32;;;;;;;;;;;14.30;99.90;;;;;;5085733;28;21187;-63
2023/03/18 08:30:00;;;;;;;;;;;14.10;99.90;;;;;;5086223;28;20026;-65
2023/03/18 08:32:27;;;;;;;;;;;13.80;99.90;;;;;;5087361;28;19924;-65
2023/03/18 08:34:54;;;;;;;;;;;13.40;99.90;;;;;;5087654;28;19924;-64
2023/03/18 08:37:21;;;;;;;;;;;13.20;99.90;;;;;;5089791;28;20011;-63
2023/03/18 08:39:47;;;;;;;;;;;13.00;99.90;;;;;;5083426;28;19943;-62
2023/03/18 08:42:14;;;;;;;;;;;12.90;99.90;;;;;;5080646;28;20011;-63
2023/03/18 08:44:42;;;;;;;;;;;12.90;99.90;;;;;;5085478;28;20028;-64
2023/03/18 08:47:10;;;;;;;;;;;13.00;99.90;;;;;;5079021;28;20007;-63
2023/03/18 08:49:37;;;;;;;;;;;13.00;99.90;;;;;;5090180;28;19931;-63
2023/03/18 08:52:05;;;;;;;;;;;13.10;99.90;;;;;;5081695;28;19938;-63
2023/03/18 08:54:32;;;;;;;;;;;13.20;99.90;;;;;;5082953;28;19932;-64
2023/03/18 08:56:59;;;;;;;;;;;13.10;99.90;;;;;;5087328;28;19975;-64
2023/03/18 08:59:26;;;;;;;;;;;13.10;99.90;;;;;;5086896;28;19924;-64
2023/03/18 09:01:53;;;;;;;;;;;12.90;99.90;;;;;;5083687;28;20027;-64
2023/03/18 09:04:21;;;;;;;;;;;13.00;99.90;;;;;;5081035;28;19928;-64
2023/03/18 09:06:48;;;;;;;;;;;13.00;99.90;;;;;;5080944;28;19930;-64
2023/03/18 09:09:15;;;;;;;;;;;13.10;99.90;;;;;;5084294;28;19925;-64
2023/03/18 09:11:44;;;;;;;;;;;13.00;99.90;;;;;;5085861;28;19924;-64
2023/03/18 09:14:12;;;;;;;;;;;12.90;99.90;;;;;;5088883;28;19924;-63
2023/03/18 09:16:38;;;;;;;;;;;13.00;99.90;;;;;;5088086;28;19928;-64
2023/03/18 09:19:05;;;;;;;;;;;12.90;99.90;;;;;;5083994;28;19932;-64
2023/03/18 09:21:33;;;;;;;;;;;12.80;99.90;;;;;;5092635;28;19931;-64
2023/03/18 09:24:00;;;;;;;;;;;12.80;99.90;;;;;;5089580;28;20399;-64
2023/03/18 09:26:27;;;;;;;;;;;12.40;99.90;;;;;;5092266;28;20062;-62
2023/03/18 09:28:53;;;;;;;;;;;12.90;99.90;;;;;;5084886;28;19928;-62
2023/03/18 09:31:20;;;;;;;;;;;13.00;99.90;;;;;;5096249;28;19924;-63
2023/03/18 09:33:47;;;;;;;;;;;13.00;99.90;;;;;;5088945;28;20436;-62
2023/03/18 09:36:14;;;;;;;;;;;13.00;99.90;;;;;;5089262;28;20535;-62
2023/03/18 09:38:42;;;;;;;;;;;13.00;99.90;;;;;;5084016;28;19944;-61
2023/03/18 09:41:25;;;;;;;;;;;13.00;99.90;;;;;;5080274;28;20266;-62
2023/03/18 09:43:58;;;;;;;;;;;12.90;99.90;;;;;;5089005;28;20271;-64
2023/03/18 09:46:28;;;;;;;;;;;12.90;99.90;;;;;;5077650;28;19925;-64
2023/03/18 09:49:08;;;;;;;;;;;12.90;99.90;;;;;;5086055;28;20019;-64
2023/03/18 09:51:41;;;;;;;;;;;12.90;99.90;;;;;;5090857;28;19935;-64
2023/03/18 09:54:12;;;;;;;;;;;13.00;99.90;;;;;;5086472;28;19931;-65
2023/03/18 09:56:39;;;;;;;;;;;13.20;99.90;;;;;;5083593;28;19924;-65
2023/03/18 09:59:11;;;;;;;;;;;13.60;99.90;;;;;;5082624;28;19932;-65
2023/03/18 10:01:38;;;;;;;;;;;14.00;99.90;;;;;;5093684;28;19939;-65
2023/03/18 10:04:07;;;;;;;;;;;14.20;99.90;;;;;;5079861;28;20342;-64
2023/03/18 10:06:36;;;;;;;;;;;14.10;99.90;;;;;;5089165;28;19928;-64
2023/03/18 10:09:08;;;;;;;;;;;14.00;99.90;;;;;;5085537;28;19928;-64
2023/03/18 10:11:39;;;;;;;;;;;13.90;99.90;;;;;;5090247;28;19936;-64
2023/03/18 10:14:15;;;;;;;;;;;13.60;99.90;;;;;;5081794;28;19924;-64
2023/03/18 10:16:45;;;;;;;;;;;13.50;99.90;;;;;;5080259;28;19925;-65
2023/03/18 10:19:12;;;;;;;;;;;13.40;99.90;;;;;;5085849;28;19971;-63
2023/03/18 10:21:42;;;;;;;;;;;13.40;99.90;;;;;;5084301;28;19924;-64
2023/03/18 10:24:16;;;;;;;;;;;13.40;99.90;;;;;;5083965;28;20838;-64
2023/03/18 10:26:47;;;;;;;;;;;13.40;99.90;;;;;;5086517;28;19924;-64
2023/03/18 10:29:21;;;;;;;;;;;13.40;99.90;;;;;;5082889;28;20027;-64
2023/03/18 10:31:57;;;;;;;;;;;13.40;99.90;;;;;;5085086;28;19984;-64
2023/03/18 10:34:30;;;;;;;;;;;13.30;99.90;;;;;;5086595;28;20392;-62
2023/03/18 10:37:03;;;;;;;;;;;13.20;99.90;;;;;;5085421;28;20015;-63
2023/03/18 10:39:32;;;;;;;;;;;13.30;99.90;;;;;;5090073;28;20011;-64
2023/03/18 10:42:02;;;;;;;;;;;13.30;99.90;;;;;;5091264;28;19932;-64
2023/03/18 10:44:32;;;;;;;;;;;13.30;99.90;;;;;;5086335;28;19924;-63
2023/03/18 10:47:01;;;;;;;;;;;13.30;99.90;;;;;;5084079;28;20694;-64
2023/03/18 10:49:29;;;;;;;;;;;13.60;99.90;;;;;;5083281;28;19978;-63
2023/03/18 10:51:59;;;;;;;;;;;13.50;99.90;;;;;;5082612;28;19932;-65
2023/03/18 10:54:30;;;;;;;;;;;13.70;99.90;;;;;;5081535;28;19938;-63
2023/03/18 10:56:56;;;;;;;;;;;13.80;99.90;;;;;;5083113;28;19932;-63
2023/03/18 10:59:25;;;;;;;;;;;14.20;99.90;;;;;;5080344;28;19928;-63
2023/03/18 11:01:54;;;;;;;;;;;14.50;99.90;;;;;;5075612;28;21706;-64
2023/03/18 11:04:23;;;;;;;;;;;14.80;99.90;;;;;;5080825;28;19947;-65
2023/03/18 11:06:52;;;;;;;;;;;15.10;99.90;;;;;;5079540;28;19969;-64
2023/03/18 11:09:19;;;;;;;;;;;15.40;99.90;;;;;;5077199;28;20126;-65
2023/03/18 11:11:47;;;;;;;;;;;15.50;99.90;;;;;;5086977;28;19924;-63
2023/03/18 11:14:16;;;;;;;;;;;16.00;99.90;;;;;;5087339;28;19959;-64
2023/03/18 11:16:48;;;;;;;;;;;16.10;99.90;;;;;;5083580;28;19943;-64
2023/03/18 11:19:27;;;;;;;;;;;16.40;99.90;;;;;;5088874;28;19930;-65
2023/03/18 11:22:05;;;;;;;;;;;16.30;99.90;;;;;;5084785;28;19931;-64
2023/03/18 11:24:38;;;;;;;;;;;15.80;99.90;;;;;;5087013;28;19932;-64
2023/03/18 11:27:22;;;;;;;;;;;15.70;99.90;;;;;;5091353;28;19928;-64
2023/03/18 11:29:50;;;;;;;;;;;15.90;99.90;;;;;;5080410;28;20031;-64
2023/03/18 11:32:25;;;;;;;;;;;16.00;99.90;;;;;;5081142;28;19932;-64
2023/03/18 11:34:54;;;;;;;;;;;16.30;99.90;;;;;;5094163;28;19924;-63
2023/03/18 11:37:21;;;;;;;;;;;16.40;99.90;;;;;;5085043;28;19924;-64
2023/03/18 11:39:48;;;;;;;;;;;16.30;99.90;;;;;;5098804;28;20022;-64
2023/03/18 11:42:20;;;;;;;;;;;16.00;99.90;;;;;;5087331;28;19935;-66
2023/03/18 11:44:48;;;;;;;;;;;16.10;99.90;;;;;;5085969;28;19971;-64
2023/03/18 11:47:19;;;;;;;;;;;16.20;99.90;;;;;;5084358;28;19924;-64
2023/03/18 11:49:47;;;;;;;;;;;16.40;99.90;;;;;;5089350;28;19924;-64
2023/03/18 11:52:25;;;;;;;;;;;16.40;99.90;;;;;;5085100;28;19971;-64
2023/03/18 11:54:58;;;;;;;;;;;16.20;99.90;;;;;;5071757;28;19931;-64
2023/03/18 11:57:29;;;;;;;;;;;16.00;99.90;;;;;;5087090;28;19985;-64
2023/03/18 12:00:04;;;;;;;;;;;16.00;99.90;;;;;;5080075;28;19932;-64
2023/03/18 12:02:39;;;;;;;;;;;15.80;99.90;;;;;;5079850;28;19924;-64
2023/03/18 12:05:20;;;;;;;;;;;15.60;99.90;;;;;;5088906;28;19924;-64
2023/03/18 12:08:00;;;;;;;;;;;15.30;99.90;;;;;;5098526;28;20314;-63
2023/03/18 12:10:29;;;;;;;;;;;15.40;99.90;;;;;;5104540;28;19924;-64
2023/03/18 12:13:08;;;;;;;;;;;15.80;99.90;;;;;;5090920;28;20383;-65
2023/03/18 12:15:43;;;;;;;;;;;15.60;99.90;;;;;;5088033;28;19924;-65
2023/03/18 12:18:16;;;;;;;;;;;15.60;99.90;;;;;;5087522;28;19924;-66
2023/03/18 12:20:51;;;;;;;;;;;15.90;99.90;;;;;;5090475;28;19932;-63
2023/03/18 12:23:41;;;;;;;;;;;16.00;99.90;;;;;;5093498;28;19977;-63
2023/03/18 12:26:12;;;;;;;;;;;16.30;99.90;;;;;;5082132;28;19936;-63
2023/03/18 12:28:44;;;;;;;;;;;16.40;99.90;;;;;;5094212;28;19924;-64
2023/03/18 12:31:35;;;;;;;;;;;16.10;99.90;;;;;;5108431;28;19924;-65
2023/03/18 12:34:03;;;;;;;;;;;16.10;99.90;;;;;;5077733;28;19956;-64
2023/03/18 12:36:41;;;;;;;;;;;16.10;99.90;;;;;;5096402;28;20023;-65
2023/03/18 12:39:32;;;;;;;;;;;16.20;99.90;;;;;;5091852;28;19977;-64
2023/03/18 12:42:02;;;;;;;;;;;16.20;99.90;;;;;;5093790;28;20405;-64
2023/03/18 12:44:36;;;;;;;;;;;16.40;99.90;;;;;;5091503;28;20383;-65
2023/03/18 12:47:06;;;;;;;;;;;16.50;99.90;;;;;;5075560;28;20388;-62
2023/03/18 12:49:35;;;;;;;;;;;16.30;99.90;;;;;;5088898;28;19939;-64
2023/03/18 12:52:05;;;;;;;;;;;16.30;99.90;;;;;;5081857;28;19947;-64
2023/03/18 12:54:33;;;;;;;;;;;16.40;99.90;;;;;;5099941;28;20439;-64
2023/03/18 12:57:02;;;;;;;;;;;16.50;99.90;;;;;;5085336;28;19969;-64
2023/03/18 12:59:32;;;;;;;;;;;16.70;99.90;;;;;;5087889;28;19924;-64
2023/03/18 13:02:12;;;;;;;;;;;16.80;99.90;;;;;;5100400;28;20367;-64
2023/03/18 13:04:40;;;;;;;;;;;16.70;99.90;;;;;;5085728;28;19954;-64
2023/03/18 13:07:14;;;;;;;;;;;16.80;99.90;;;;;;5087282;28;19928;-63
2023/03/18 13:09:44;;;;;;;;;;;16.90;99.90;;;;;;5089262;28;19964;-64
2023/03/18 13:12:12;;;;;;;;;;;17.00;99.90;;;;;;5086153;28;19924;-63
2023/03/18 13:14:57;;;;;;;;;;;17.10;99.90;;;;;;5100444;28;19973;-63
2023/03/18 13:17:28;;;;;;;;;;;17.20;99.90;;;;;;5093839;28;19932;-63
2023/03/18 13:19:56;;;;;;;;;;;16.80;99.90;;;;;;5085702;28;19928;-64
2023/03/18 13:22:36;;;;;;;;;;;16.70;99.90;;;;;;5086075;28;20040;-64
2023/03/18 13:25:14;;;;;;;;;;;16.80;99.90;;;;;;5081256;28;20393;-64
2023/03/18 13:27:47;;;;;;;;;;;16.70;99.90;;;;;;5084231;28;19935;-64
2023/03/18 13:30:18;;;;;;;;;;;16.60;99.90;;;;;;5089001;28;20382;-65
2023/03/18 13:32:52;;;;;;;;;;;16.70;99.90;;;;;;5085582;28;20375;-65
2023/03/18 13:35:34;;;;;;;;;;;17.00;99.90;;;;;;5081399;28;20298;-65
2023/03/18 13:38:07;;;;;;;;;;;17.10;99.90;;;;;;5092971;28;20303;-65
2023/03/18 13:40:42;;;;;;;;;;;16.70;99.90;;;;;;5085744;28;19932;-65
2023/03/18 13:43:12;;;;;;;;;;;16.40;99.90;;;;;;5088206;28;19924;-65
2023/03/18 13:45:40;;;;;;;;;;;16.50;99.90;;;;;;5086416;28;20011;-64
2023/03/18 13:48:08;;;;;;;;;;;16.90;99.90;;;;;;5091111;28;20022;-64
2023/03/18 13:50:38;;;;;;;;;;;16.90;99.90;;;;;;5089248;28;19975;-65
2023/03/18 13:53:16;;;;;;;;;;;16.60;99.90;;;;;;5091204;28;19924;-64
2023/03/18 13:55:46;;;;;;;;;;;16.80;99.90;;;;;;5083610;28;19978;-65
2023/03/18 13:58:21;;;;;;;;;;;17.00;99.90;;;;;;5076890;28;19924;-65
2023/03/18 14:01:07;;;;;;;;;;;16.80;99.90;;;;;;5077458;28;20155;-65
2023/03/18 14:03:52;;;;;;;;;;;16.90;99.90;;;;;;5080828;28;19932;-65
2023/03/18 14:06:21;;;;;;;;;;;16.90;99.90;;;;;;5078896;28;19928;-65
2023/03/18 14:08:50;;;;;;;;;;;17.10;99.90;;;;;;5080943;28;19931;-65
2023/03/18 14:11:37;;;;;;;;;;;17.20;99.90;;;;;;5084372;28;19944;-65
2023/03/18 14:14:04;;;;;;;;;;;17.20;99.90;;;;;;5087026;28;19954;-65
2023/03/18 14:16:50;;;;;;;;;;;17.00;99.90;;;;;;5086386;28;20224;-65
2023/03/18 14:19:19;;;;;;;;;;;16.80;99.90;;;;;;5082229;28;19936;-66
2023/03/18 14:21:48;;;;;;;;;;;16.70;99.90;;;;;;5080722;28;20383;-64
2023/03/18 14:24:23;;;;;;;;;;;16.80;99.90;;;;;;5076366;28;19951;-64
2023/03/18 14:27:08;;;;;;;;;;;16.70;99.90;;;;;;5086465;28;19925;-64
2023/03/18 14:29:38;;;;;;;;;;;16.60;99.90;;;;;;5085181;28;20008;-65
2023/03/18 14:32:07;;;;;;;;;;;16.80;99.90;;;;;;5081007;28;19924;-65
2023/03/18 14:34:34;;;;;;;;;;;16.90;99.90;;;;;;5082803;28;20375;-65
2023/03/18 14:37:11;;;;;;;;;;;16.90;99.90;;;;;;5085431;28;20014;-65
2023/03/18 14:39:41;;;;;;;;;;;16.90;99.90;;;;;;5088252;28;19950;-66